SMZO/ORG METAR and TAF weather

Enter ICAO airport designator
Station Type Date Time Source
SMZO METAR 2022/01/26 09:00 UTC NOAA

SMZO 260900Z 09004KT 6000 -SHRA BKN010 24/23 Q1011 NOSIG


Station Type Date Time Source
SMZO Decoded METAR 2022/01/26 09:00 UTC NOAA

Station name not available
Jan 26, 2022 - 04:00 AM EST / 2022.01.26 0900 UTC
Wind: from the E (090 degrees) at 5 MPH (4 KT):0
Visibility: 3 mile(s):0
Sky conditions: mostly cloudy
Weather: light rain showers
Temperature: 75 F (24 C)
Dew Point: 73 F (23 C)
Relative Humidity: 94%
Pressure (altimeter): 29.85 in. Hg (1011 hPa)
ob: SMZO 260900Z 09004KT 6000 -SHRA BKN010 24/23 Q1011 NOSIG
cycle: 9

Station Type Date Time Source
SMZO TAF 2022/01/26 06:18 UTC NOAA

TAF TAF SMZO 260400Z 2606/2706 02003KT 9999 FEW010 SCT025 TX29/2616Z TN24/2609Z PROB30
TEMPO 2608/2612 6000 -SHRA BKN012
BECMG 2611/2613 02008KT BKN015
TEMPO 2612/2621 5000 SHRA FEW015TCU

Example: see airport list